Time;durP1;ratioP1;P1;durP2;ratioP2;P2;SDS_P1;SDS_P2;PMS_P1;PMS_P2;Temp;Humidity;BMP_temperature;BMP_pressure;BME280_temperature;BME280_humidity;BME280_pressure;Samples;Min_cycle;Max_cycle;Signal;HPM_P1;HPM_P2
2021/09/16 00:01:00;;;;;;;3.67;3.40;;;23.30;43.40;;;;;;4953842;28;20219;-51
2021/09/16 00:03:26;;;;;;;4.30;3.30;;;23.30;43.20;;;;;;4953985;29;20195;-53
2021/09/16 00:05:51;;;;;;;3.67;3.37;;;23.30;43.20;;;;;;4952558;29;20243;-49
2021/09/16 00:08:17;;;;;;;3.60;3.30;;;23.30;43.20;;;;;;4953939;29;20411;-53
2021/09/16 00:10:43;;;;;;;3.13;2.83;;;23.30;43.20;;;;;;4953539;28;20175;-52
2021/09/16 00:13:09;;;;;;;2.63;2.43;;;23.20;43.10;;;;;;4953975;29;20713;-55
2021/09/16 00:18:15;;;;;;;3.13;2.93;;;23.30;43.20;;;;;;4957617;23;20471;-54
2021/09/16 00:20:41;;;;;;;3.20;2.90;;;23.30;43.30;;;;;;4952585;28;20214;-52
2021/09/16 00:23:06;;;;;;;3.30;3.10;;;23.30;43.20;;;;;;4952119;29;20446;-56
2021/09/16 00:25:32;;;;;;;2.30;2.20;;;23.30;43.20;;;;;;4953491;29;20202;-56
2021/09/16 00:27:57;;;;;;;2.93;2.73;;;23.30;43.20;;;;;;4961720;28;20206;-52
2021/09/16 00:30:23;;;;;;;2.40;2.30;;;23.30;43.20;;;;;;4973124;28;20543;-54
2021/09/16 00:32:48;;;;;;;2.87;2.67;;;23.30;43.20;;;;;;4971850;28;20206;-54
2021/09/16 00:35:14;;;;;;;2.20;2.10;;;23.20;43.10;;;;;;4972170;28;20185;-49
2021/09/16 00:37:40;;;;;;;2.73;2.50;;;23.20;43.10;;;;;;4972683;28;20649;-52
2021/09/16 00:40:07;;;;;;;2.50;2.30;;;23.30;43.20;;;;;;4973011;28;20659;-53
2021/09/16 00:42:33;;;;;;;2.33;2.23;;;23.20;43.20;;;;;;4972756;28;20179;-52
2021/09/16 00:44:58;;;;;;;2.67;2.47;;;23.30;43.20;;;;;;4972814;28;20824;-51
2021/09/16 00:47:24;;;;;;;3.40;2.43;;;23.30;43.20;;;;;;4971840;28;20241;-53
2021/09/16 00:49:49;;;;;;;2.90;2.40;;;23.20;43.10;;;;;;4972853;28;20171;-54
2021/09/16 00:52:17;;;;;;;2.27;2.17;;;23.20;43.10;;;;;;4973219;28;20250;-56
2021/09/16 00:54:45;;;;;;;2.60;2.40;;;23.20;43.10;;;;;;4976817;28;20183;-50
2021/09/16 00:57:12;;;;;;;2.90;2.70;;;23.20;43.90;;;;;;4975923;28;20417;-54
2021/09/16 00:59:40;;;;;;;2.67;2.47;;;23.20;43.10;;;;;;4976013;28;20516;-51
2021/09/16 01:02:05;;;;;;;2.57;2.43;;;23.20;43.10;;;;;;4976045;28;20493;-56
2021/09/16 01:04:31;;;;;;;2.53;2.37;;;23.20;43.10;;;;;;4976315;28;21016;-51
2021/09/16 01:06:58;;;;;;;3.00;2.27;;;23.20;43.10;;;;;;4976091;28;20207;-53
2021/09/16 01:09:24;;;;;;;2.50;2.30;;;23.20;43.10;;;;;;4976262;28;20425;-56
2021/09/16 01:11:51;;;;;;;2.37;2.20;;;23.20;43.10;;;;;;4975548;28;20414;-54
2021/09/16 01:14:24;;;;;;;2.17;2.07;;;23.20;43.10;;;;;;4975234;28;20449;-54
2021/09/16 01:16:51;;;;;;;2.60;2.30;;;23.20;43.10;;;;;;4975787;28;20422;-56
2021/09/16 01:19:17;;;;;;;2.40;2.20;;;23.20;43.10;;;;;;4976078;28;20524;-50
2021/09/16 01:21:44;;;;;;;2.70;2.50;;;23.20;43.10;;;;;;4976120;28;20924;-51
2021/09/16 01:24:09;;;;;;;2.50;1.93;;;23.20;43.10;;;;;;4975039;28;20426;-52
2021/09/16 01:26:35;;;;;;;2.50;2.30;;;23.20;43.10;;;;;;4975745;28;20465;-58
2021/09/16 01:29:00;;;;;;;2.73;2.53;;;23.20;43.10;;;;;;4975851;28;20226;-54
2021/09/16 01:31:36;;;;;;;2.00;1.90;;;23.20;43.10;;;;;;4975886;28;20520;-52
2021/09/16 01:34:04;;;;;;;2.10;2.00;;;23.20;43.10;;;;;;4975921;28;20167;-53
2021/09/16 01:36:30;;;;;;;3.97;2.13;;;23.20;43.10;;;;;;4975821;28;20441;-55
2021/09/16 01:38:55;;;;;;;2.50;2.40;;;23.20;43.10;;;;;;4975296;28;20434;-51
2021/09/16 01:41:21;;;;;;;2.27;2.17;;;23.20;43.10;;;;;;4975242;28;20175;-54
2021/09/16 01:43:46;;;;;;;2.23;2.13;;;23.20;43.10;;;;;;4975539;28;20183;-54
2021/09/16 01:46:12;;;;;;;2.30;2.10;;;23.20;43.10;;;;;;4975337;28;20203;-50
2021/09/16 01:48:37;;;;;;;2.20;2.10;;;23.20;43.10;;;;;;4974733;28;20222;-56
2021/09/16 01:51:03;;;;;;;4.53;2.40;;;23.20;43.10;;;;;;4974467;28;20684;-51
2021/09/16 01:53:28;;;;;;;2.30;2.10;;;23.20;43.10;;;;;;4975499;28;20206;-51
2021/09/16 01:55:54;;;;;;;2.43;2.23;;;23.20;43.10;;;;;;4973957;28;20178;-55
2021/09/16 01:58:19;;;;;;;3.00;2.17;;;23.20;43.10;;;;;;4974909;28;20583;-51
2021/09/16 02:00:45;;;;;;;2.10;1.90;;;23.20;43.10;;;;;;4974322;28;20703;-54
2021/09/16 02:03:10;;;;;;;2.10;2.00;;;23.20;43.80;;;;;;4974820;28;20193;-49
2021/09/16 02:05:36;;;;;;;2.20;2.00;;;23.20;43.30;;;;;;4974229;28;20209;-52
2021/09/16 02:08:01;;;;;;;2.23;2.10;;;23.20;43.10;;;;;;4974540;28;20191;-54
2021/09/16 02:10:27;;;;;;;1.77;1.67;;;23.20;43.20;;;;;;4975272;28;20213;-52
2021/09/16 02:12:52;;;;;;;1.80;1.70;;;23.20;43.20;;;;;;4974951;28;20183;-55
2021/09/16 02:15:18;;;;;;;5.37;1.90;;;23.20;43.10;;;;;;4975084;28;20598;-51
2021/09/16 02:17:43;;;;;;;1.93;1.83;;;23.20;43.10;;;;;;4974086;28;20226;-54
2021/09/16 02:20:10;;;;;;;2.00;1.90;;;23.20;43.20;;;;;;4974759;28;20274;-52
2021/09/16 02:22:35;;;;;;;1.70;1.60;;;23.20;43.20;;;;;;4974136;28;20179;-51
2021/09/16 02:25:01;;;;;;;1.80;1.70;;;23.20;43.20;;;;;;4989729;28;20458;-52
2021/09/16 02:27:26;;;;;;;2.53;2.40;;;23.10;43.10;;;;;;4974496;28;20656;-50
2021/09/16 02:29:52;;;;;;;1.90;1.80;;;23.20;43.20;;;;;;4973986;28;20629;-57
2021/09/16 02:32:17;;;;;;;1.60;1.50;;;23.20;43.20;;;;;;4973292;28;20572;-54
2021/09/16 02:34:43;;;;;;;2.30;2.20;;;23.20;43.20;;;;;;4974424;28;20618;-52
2021/09/16 02:37:08;;;;;;;2.20;2.00;;;23.20;43.30;;;;;;4974431;28;20547;-51
2021/09/16 02:39:34;;;;;;;1.90;1.80;;;23.20;43.40;;;;;;4974736;28;20178;-50
2021/09/16 02:41:59;;;;;;;1.90;1.80;;;23.20;43.40;;;;;;4974034;28;20182;-53
2021/09/16 02:44:25;;;;;;;2.27;2.07;;;23.20;43.50;;;;;;4974158;28;20653;-51
2021/09/16 02:46:50;;;;;;;2.10;1.90;;;23.20;43.40;;;;;;4974271;28;20716;-54
2021/09/16 02:49:16;;;;;;;2.10;2.00;;;23.20;43.50;;;;;;4974416;28;20217;-51
2021/09/16 02:51:41;;;;;;;2.03;1.93;;;23.20;43.60;;;;;;4974487;28;20174;-54
2021/09/16 02:54:08;;;;;;;1.87;1.63;;;23.20;43.60;;;;;;4973683;28;20178;-52
2021/09/16 02:56:34;;;;;;;2.20;2.00;;;23.20;43.60;;;;;;4973758;28;20186;-57
2021/09/16 02:58:59;;;;;;;2.10;2.00;;;23.20;43.70;;;;;;4973883;28;20438;-54
2021/09/16 03:01:25;;;;;;;1.93;1.83;;;23.20;43.70;;;;;;4973633;28;20181;-56
2021/09/16 03:03:50;;;;;;;1.80;1.70;;;23.20;43.70;;;;;;4973309;28;20543;-52
2021/09/16 03:06:16;;;;;;;1.90;1.80;;;23.20;43.70;;;;;;4974202;28;20212;-52
2021/09/16 03:08:41;;;;;;;3.97;1.70;;;23.20;43.80;;;;;;4973789;28;20663;-53
2021/09/16 03:11:07;;;;;;;2.40;1.77;;;23.20;43.80;;;;;;4973287;28;20174;-52
2021/09/16 03:13:32;;;;;;;2.10;1.90;;;23.10;43.70;;;;;;4973464;28;20254;-54
2021/09/16 03:15:58;;;;;;;1.80;1.70;;;23.20;43.80;;;;;;4973447;28;20547;-53
2021/09/16 03:18:23;;;;;;;1.73;1.60;;;23.20;43.80;;;;;;4972852;28;20198;-54
2021/09/16 03:20:49;;;;;;;2.10;1.90;;;23.10;43.70;;;;;;4973577;28;20190;-52
2021/09/16 03:23:14;;;;;;;1.90;1.80;;;23.10;43.80;;;;;;4972845;28;20542;-54
2021/09/16 03:25:40;;;;;;;1.90;1.80;;;23.20;43.80;;;;;;4973661;28;20205;-51
2021/09/16 03:28:05;;;;;;;2.50;1.70;;;23.20;43.80;;;;;;4972966;28;20206;-55
2021/09/16 03:30:31;;;;;;;1.97;1.87;;;23.10;43.70;;;;;;4973088;28;20171;-51
2021/09/16 03:32:58;;;;;;;1.67;1.57;;;23.20;43.80;;;;;;4972978;28;20237;-51
2021/09/16 03:35:23;;;;;;;2.10;2.00;;;23.10;43.70;;;;;;4973718;28;20535;-51
2021/09/16 03:37:49;;;;;;;2.10;1.90;;;23.10;43.70;;;;;;4972803;28;20440;-52
2021/09/16 03:40:14;;;;;;;2.20;2.10;;;23.10;43.70;;;;;;4973435;28;20727;-50
2021/09/16 03:42:40;;;;;;;1.70;1.60;;;23.10;43.70;;;;;;4973030;28;20234;-56
2021/09/16 03:45:06;;;;;;;1.93;1.83;;;23.10;43.70;;;;;;4973456;28;20213;-51
2021/09/16 03:47:31;;;;;;;1.77;1.67;;;23.20;43.80;;;;;;4973474;28;20225;-52
2021/09/16 03:49:57;;;;;;;2.20;2.00;;;23.20;43.70;;;;;;4973373;28;20194;-51
2021/09/16 03:52:22;;;;;;;2.10;2.00;;;23.20;43.70;;;;;;4972556;28;20253;-54
2021/09/16 03:54:48;;;;;;;1.67;1.57;;;23.20;43.70;;;;;;4973370;28;20572;-50
2021/09/16 03:57:13;;;;;;;2.50;1.60;;;23.20;43.70;;;;;;4972091;28;20221;-54
2021/09/16 03:59:39;;;;;;;1.50;1.40;;;23.20;43.70;;;;;;4973313;28;20175;-52
2021/09/16 04:02:04;;;;;;;2.20;2.00;;;23.10;43.70;;;;;;4973319;28;20529;-54
2021/09/16 04:04:30;;;;;;;2.67;2.00;;;23.10;43.80;;;;;;4973239;28;20202;-51
2021/09/16 04:06:56;;;;;;;2.17;1.97;;;23.10;43.90;;;;;;4972991;28;20650;-55
2021/09/16 04:09:21;;;;;;;2.03;1.83;;;23.10;44.00;;;;;;4973125;28;20194;-55
2021/09/16 04:11:47;;;;;;;2.20;2.03;;;23.10;44.00;;;;;;4972705;28;20261;-54
2021/09/16 04:14:13;;;;;;;2.17;1.90;;;23.10;44.10;;;;;;4972847;28;20229;-55
2021/09/16 04:16:38;;;;;;;1.90;1.80;;;23.10;44.10;;;;;;4971809;28;20187;-52
2021/09/16 04:19:04;;;;;;;1.90;1.80;;;23.10;44.20;;;;;;4972588;28;20206;-54
2021/09/16 04:21:30;;;;;;;1.70;1.60;;;23.10;44.40;;;;;;4972704;28;20205;-59
2021/09/16 04:23:55;;;;;;;1.60;1.50;;;23.10;44.30;;;;;;4971530;28;20511;-54
2021/09/16 04:26:20;;;;;;;2.83;2.53;;;23.10;44.20;;;;;;4972880;28;20261;-56
2021/09/16 04:28:46;;;;;;;4.57;4.27;;;23.20;44.20;;;;;;4976638;28;20203;-57
2021/09/16 04:31:12;;;;;;;5.37;5.03;;;23.20;44.30;;;;;;4975775;28;20593;-56
2021/09/16 04:33:37;;;;;;;6.43;4.23;;;23.20;44.40;;;;;;4975184;28;20174;-61
2021/09/16 04:36:03;;;;;;;5.23;4.73;;;23.20;44.60;;;;;;4975261;28;20179;-61
2021/09/16 04:38:29;;;;;;;3.93;3.73;;;23.20;45.10;;;;;;4970793;28;20242;-58
2021/09/16 04:40:54;;;;;;;4.57;4.17;;;23.20;45.40;;;;;;4956305;29;20187;-60
2021/09/16 04:43:20;;;;;;;3.87;3.67;;;23.20;45.50;;;;;;4956663;29;20278;-59
2021/09/16 04:45:45;;;;;;;3.83;3.53;;;23.20;45.40;;;;;;4956777;29;20207;-59
2021/09/16 04:48:11;;;;;;;3.67;3.40;;;23.30;45.60;;;;;;4957298;28;20203;-60
2021/09/16 04:50:36;;;;;;;3.40;3.20;;;23.30;45.60;;;;;;4957378;29;20179;-59
2021/09/16 04:53:03;;;;;;;3.63;3.43;;;23.30;45.60;;;;;;4957235;29;20215;-57
2021/09/16 04:55:28;;;;;;;3.53;3.23;;;23.30;45.60;;;;;;4956092;29;20206;-58
2021/09/16 04:57:54;;;;;;;3.07;2.87;;;23.30;45.20;;;;;;4956741;29;20435;-58
2021/09/16 05:00:19;;;;;;;3.27;2.97;;;23.30;45.20;;;;;;4957383;29;20184;-59
2021/09/16 05:02:45;;;;;;;4.10;3.00;;;23.20;44.90;;;;;;4957004;29;20274;-59
2021/09/16 05:05:10;;;;;;;3.37;2.90;;;23.20;44.90;;;;;;4956986;29;20203;-61
2021/09/16 05:07:36;;;;;;;3.30;3.10;;;23.30;45.10;;;;;;4956457;29;20241;-60
2021/09/16 05:10:02;;;;;;;3.20;3.00;;;23.20;45.20;;;;;;4956871;29;20183;-61
2021/09/16 05:12:27;;;;;;;3.20;2.90;;;23.30;45.20;;;;;;4956676;29;20250;-60
2021/09/16 05:14:53;;;;;;;3.80;3.50;;;23.30;44.90;;;;;;4956925;29;20218;-60
2021/09/16 05:17:18;;;;;;;2.50;2.30;;;23.20;44.80;;;;;;4956604;29;20203;-57
2021/09/16 05:19:44;;;;;;;3.90;2.90;;;23.30;44.90;;;;;;4956798;29;20205;-56
2021/09/16 05:22:09;;;;;;;3.90;3.20;;;23.20;44.80;;;;;;4956833;29;20195;-59
2021/09/16 05:24:35;;;;;;;3.43;3.13;;;23.20;44.80;;;;;;4956470;29;20187;-58
2021/09/16 05:27:01;;;;;;;3.03;2.77;;;23.20;45.00;;;;;;4956462;29;20184;-60
2021/09/16 05:29:26;;;;;;;3.57;2.83;;;23.20;44.90;;;;;;4956509;29;20886;-60
2021/09/16 05:31:52;;;;;;;3.40;3.13;;;23.20;45.60;;;;;;4956592;29;20258;-59
2021/09/16 05:34:18;;;;;;;2.67;2.47;;;23.20;44.90;;;;;;4956471;29;20226;-59
2021/09/16 05:36:43;;;;;;;2.73;2.53;;;23.20;44.90;;;;;;4956426;29;20198;-59
2021/09/16 05:39:09;;;;;;;2.60;2.40;;;23.20;44.90;;;;;;4954933;28;20209;-59
2021/09/16 05:41:35;;;;;;;2.90;2.30;;;23.20;44.90;;;;;;4956372;29;20574;-59
2021/09/16 05:44:00;;;;;;;3.07;2.87;;;23.20;44.90;;;;;;4956191;29;20183;-55
2021/09/16 05:46:26;;;;;;;3.07;2.53;;;23.20;44.80;;;;;;4956489;29;20600;-56
2021/09/16 05:48:51;;;;;;;3.20;2.90;;;23.20;44.80;;;;;;4955954;29;20282;-58
2021/09/16 05:51:17;;;;;;;5.43;2.53;;;23.20;44.80;;;;;;4956261;29;20211;-58
2021/09/16 05:53:43;;;;;;;2.70;2.50;;;23.20;44.90;;;;;;4956257;29;20180;-57
2021/09/16 05:56:08;;;;;;;2.93;2.67;;;23.20;45.00;;;;;;4955883;29;20218;-51
2021/09/16 05:58:34;;;;;;;2.63;2.40;;;23.20;45.00;;;;;;4955808;29;20203;-55
2021/09/16 06:00:59;;;;;;;3.37;2.50;;;23.20;45.00;;;;;;4956005;29;20657;-52
2021/09/16 06:03:25;;;;;;;3.57;2.30;;;23.20;45.40;;;;;;4955867;29;20194;-56
2021/09/16 06:05:50;;;;;;;4.57;2.97;;;23.20;45.40;;;;;;4955854;29;20227;-53
2021/09/16 06:08:16;;;;;;;3.50;2.87;;;23.20;45.40;;;;;;4955645;29;20723;-58
2021/09/16 06:10:41;;;;;;;2.23;2.13;;;23.20;45.40;;;;;;4955741;29;20180;-55
2021/09/16 06:13:07;;;;;;;4.00;2.37;;;23.20;45.40;;;;;;4955795;29;20182;-58
2021/09/16 06:15:32;;;;;;;2.60;2.40;;;23.20;45.30;;;;;;4955752;29;20179;-55
2021/09/16 06:17:58;;;;;;;3.10;2.57;;;23.20;45.30;;;;;;4955644;29;20211;-60
2021/09/16 06:20:23;;;;;;;2.97;2.20;;;23.20;45.30;;;;;;4955414;29;20202;-54
2021/09/16 06:22:49;;;;;;;2.50;2.30;;;23.20;45.40;;;;;;4955593;29;20186;-57
2021/09/16 06:25:15;;;;;;;2.50;2.20;;;23.20;45.30;;;;;;4955445;29;20203;-57
2021/09/16 06:27:42;;;;;;;3.07;2.33;;;23.20;45.10;;;;;;4955355;28;20230;-56
2021/09/16 06:30:09;;;;;;;3.30;2.87;;;23.20;45.20;;;;;;4955568;29;20773;-55
2021/09/16 06:32:36;;;;;;;3.57;2.40;;;23.20;45.30;;;;;;4955363;29;20509;-57
2021/09/16 06:35:03;;;;;;;2.50;2.00;;;23.20;45.40;;;;;;4955445;29;20478;-57
2021/09/16 06:37:29;;;;;;;3.73;2.60;;;23.20;45.40;;;;;;4955036;29;20446;-57
2021/09/16 06:39:54;;;;;;;6.20;2.53;;;23.10;45.50;;;;;;4955203;29;20419;-54
2021/09/16 06:42:20;;;;;;;2.10;1.93;;;23.20;45.60;;;;;;4955254;29;20175;-59
2021/09/16 06:44:45;;;;;;;3.70;2.43;;;23.10;45.60;;;;;;4955286;29;20223;-59
2021/09/16 06:47:11;;;;;;;2.83;2.50;;;23.20;45.70;;;;;;4954855;29;20172;-60
2021/09/16 06:49:40;;;;;;;2.50;2.30;;;23.20;45.80;;;;;;4954828;28;20171;-62
2021/09/16 06:52:06;;;;;;;5.63;2.43;;;23.20;45.70;;;;;;4951510;28;20705;-60
2021/09/16 06:54:32;;;;;;;6.47;2.80;;;23.20;45.60;;;;;;4954642;28;20545;-59
2021/09/16 06:56:58;;;;;;;4.30;2.40;;;23.20;45.60;;;;;;4954722;28;20410;-59
2021/09/16 06:59:24;;;;;;;5.67;2.97;;;23.20;45.60;;;;;;4954229;28;20215;-61
2021/09/16 07:01:49;;;;;;;2.93;2.60;;;23.20;45.70;;;;;;4954888;29;20831;-62
2021/09/16 07:04:15;;;;;;;2.37;2.17;;;23.20;45.60;;;;;;4954451;29;20791;-60
2021/09/16 07:06:40;;;;;;;2.70;2.50;;;23.20;45.50;;;;;;4954290;29;20210;-61
2021/09/16 07:09:07;;;;;;;4.00;2.70;;;23.20;45.60;;;;;;4954224;29;20245;-60
2021/09/16 07:11:32;;;;;;;3.97;2.83;;;23.20;45.60;;;;;;4954709;29;20419;-59
2021/09/16 07:13:58;;;;;;;4.27;3.07;;;23.20;45.50;;;;;;4954269;28;20184;-57
2021/09/16 07:16:23;;;;;;;4.00;2.27;;;23.20;45.50;;;;;;4954581;29;20176;-60
2021/09/16 07:18:49;;;;;;;2.97;2.17;;;23.20;45.50;;;;;;4954286;29;20257;-61
2021/09/16 07:21:15;;;;;;;2.53;2.20;;;23.20;45.50;;;;;;4954284;29;20673;-60
2021/09/16 07:23:40;;;;;;;4.53;2.20;;;23.20;45.50;;;;;;4954258;29;20179;-61
2021/09/16 07:26:06;;;;;;;3.17;2.20;;;23.20;45.50;;;;;;4954519;29;20207;-60
2021/09/16 07:28:35;;;;;;;2.53;2.33;;;23.20;45.40;;;;;;4954176;29;20198;-58
2021/09/16 07:31:01;;;;;;;2.80;2.47;;;23.20;45.50;;;;;;4954494;28;20191;-61
2021/09/16 07:33:27;;;;;;;1.73;1.63;;;23.20;45.50;;;;;;4954340;28;20411;-61
2021/09/16 07:35:52;;;;;;;2.30;2.07;;;23.20;45.40;;;;;;4953905;29;20477;-60
2021/09/16 07:38:18;;;;;;;3.47;2.30;;;23.20;45.50;;;;;;4953940;29;20199;-59
2021/09/16 07:40:43;;;;;;;2.87;2.20;;;23.20;45.50;;;;;;4954151;29;20179;-60
2021/09/16 07:43:09;;;;;;;3.70;3.07;;;23.20;45.50;;;;;;4954181;29;20179;-59
2021/09/16 07:45:35;;;;;;;2.30;2.07;;;23.20;45.50;;;;;;4954288;28;20282;-60
2021/09/16 07:48:01;;;;;;;3.47;2.83;;;23.20;45.50;;;;;;4953772;28;20518;-60
2021/09/16 07:50:27;;;;;;;4.50;2.47;;;23.20;45.60;;;;;;4954149;29;20518;-60
2021/09/16 07:52:52;;;;;;;3.00;2.73;;;23.20;45.50;;;;;;4953832;29;20183;-59
2021/09/16 07:55:18;;;;;;;2.20;2.00;;;23.20;45.50;;;;;;4953988;29;20258;-58
2021/09/16 07:57:43;;;;;;;2.50;2.30;;;23.20;45.50;;;;;;4953800;28;20290;-59
2021/09/16 08:00:10;;;;;;;2.23;2.13;;;23.20;45.60;;;;;;4953947;29;20258;-59
2021/09/16 08:02:46;;;;;;;3.20;2.60;;;23.20;45.40;;;;;;4953247;28;20199;-60
2021/09/16 08:05:13;;;;;;;2.67;2.47;;;23.20;45.50;;;;;;4953368;28;20506;-60
2021/09/16 08:07:38;;;;;;;3.83;2.97;;;23.20;45.40;;;;;;4953641;28;20437;-59
2021/09/16 08:10:04;;;;;;;3.67;2.47;;;23.20;45.50;;;;;;4953582;29;20414;-61
2021/09/16 08:12:30;;;;;;;2.90;2.30;;;23.20;45.50;;;;;;4953806;29;20238;-59
2021/09/16 08:14:55;;;;;;;2.53;2.30;;;23.20;45.50;;;;;;4953675;29;20418;-61
2021/09/16 08:17:21;;;;;;;2.70;2.50;;;23.20;45.50;;;;;;4953587;29;20222;-58
2021/09/16 08:19:46;;;;;;;2.53;1.90;;;23.20;45.50;;;;;;4953529;29;20243;-59
2021/09/16 08:22:12;;;;;;;2.20;2.10;;;23.20;45.40;;;;;;4953535;29;20191;-61
2021/09/16 08:24:37;;;;;;;2.60;2.40;;;23.20;45.40;;;;;;4953521;29;20178;-60
2021/09/16 08:27:04;;;;;;;2.63;1.87;;;23.20;45.50;;;;;;4953433;29;20176;-62
2021/09/16 08:29:30;;;;;;;2.23;2.03;;;23.20;45.50;;;;;;4953637;28;20267;-59
2021/09/16 08:31:56;;;;;;;2.07;1.90;;;23.20;45.40;;;;;;4953498;28;20502;-59
2021/09/16 08:34:25;;;;;;;1.73;1.63;;;23.20;45.40;;;;;;4953542;29;20494;-55
2021/09/16 08:36:52;;;;;;;2.17;2.07;;;23.20;45.40;;;;;;4953178;28;20179;-57
2021/09/16 08:39:17;;;;;;;1.90;1.80;;;23.20;45.40;;;;;;4953554;28;20505;-58
2021/09/16 08:41:43;;;;;;;3.07;2.10;;;23.20;45.40;;;;;;4953262;29;20505;-58
2021/09/16 08:44:10;;;;;;;2.03;1.47;;;23.20;45.30;;;;;;4953401;28;20187;-59
2021/09/16 08:46:35;;;;;;;2.07;1.97;;;23.20;45.30;;;;;;4953259;28;20226;-57
2021/09/16 08:49:01;;;;;;;1.70;1.60;;;23.20;45.30;;;;;;4953370;29;20936;-57
2021/09/16 08:51:28;;;;;;;1.97;1.87;;;23.20;45.20;;;;;;4953408;29;20168;-58
2021/09/16 08:53:55;;;;;;;1.87;1.77;;;23.20;45.10;;;;;;4953527;28;20183;-59
2021/09/16 08:56:21;;;;;;;1.63;1.53;;;23.20;45.10;;;;;;4953209;28;20497;-58
2021/09/16 08:58:48;;;;;;;2.40;2.20;;;23.20;45.10;;;;;;4953100;28;20837;-60
2021/09/16 09:01:17;;;;;;;1.70;1.60;;;23.20;45.20;;;;;;4953356;28;20431;-59
2021/09/16 09:03:43;;;;;;;1.60;1.50;;;23.20;45.10;;;;;;4953202;28;20482;-59
2021/09/16 09:06:27;;;;;;;2.07;1.97;;;23.20;45.10;;;;;;4953328;29;20518;-58
2021/09/16 09:09:25;;;;;;;1.90;1.80;;;23.20;45.00;;;;;;4952937;28;20282;-59
2021/09/16 09:12:14;;;;;;;3.03;1.70;;;23.20;45.00;;;;;;4920778;28;20759;-56
2021/09/16 09:14:43;;;;;;;1.60;1.50;;;23.20;45.10;;;;;;4956296;28;20407;-59
2021/09/16 09:17:20;;;;;;;1.97;1.67;;;23.20;45.10;;;;;;4956597;28;20707;-57
2021/09/16 09:19:48;;;;;;;1.90;1.80;;;23.20;45.00;;;;;;4956689;28;20410;-59
2021/09/16 09:22:14;;;;;;;2.20;2.10;;;23.20;45.00;;;;;;4956638;29;20454;-58
2021/09/16 09:24:44;;;;;;;2.40;2.30;;;23.10;44.90;;;;;;4956378;28;20418;-59
2021/09/16 09:27:46;;;;;;;1.97;1.87;;;23.20;45.00;;;;;;4955060;29;20438;-59
2021/09/16 09:30:20;;;;;;;1.77;1.67;;;23.20;45.00;;;;;;4952765;28;20423;-60
2021/09/16 09:33:01;;;;;;;2.03;1.93;;;23.10;45.60;;;;;;4956467;28;20466;-57
2021/09/16 09:35:29;;;;;;;2.20;2.07;;;23.10;44.80;;;;;;4956388;28;20422;-58
2021/09/16 09:37:56;;;;;;;2.30;2.10;;;23.10;44.80;;;;;;4956290;29;20429;-59
2021/09/16 09:40:39;;;;;;;2.00;1.90;;;23.10;44.80;;;;;;4956499;28;20902;-58
2021/09/16 09:43:19;;;;;;;2.20;2.10;;;23.20;44.90;;;;;;4956320;28;20414;-57
2021/09/16 09:45:59;;;;;;;2.20;2.10;;;23.10;44.80;;;;;;4956510;28;20513;-60
2021/09/16 09:48:25;;;;;;;2.30;2.20;;;23.10;44.80;;;;;;4956100;28;20921;-59
2021/09/16 09:50:51;;;;;;;2.30;2.20;;;23.10;44.90;;;;;;4956221;28;20407;-59
2021/09/16 09:53:17;;;;;;;2.23;1.70;;;23.10;44.80;;;;;;4956144;28;20215;-57
2021/09/16 09:55:43;;;;;;;2.17;1.97;;;23.10;44.80;;;;;;4955750;29;20469;-59
2021/09/16 09:58:09;;;;;;;3.53;2.40;;;23.10;44.80;;;;;;4955747;29;20195;-54
2021/09/16 10:00:34;;;;;;;2.00;1.90;;;23.10;45.50;;;;;;4956098;29;20223;-56
2021/09/16 10:03:00;;;;;;;1.90;1.80;;;23.10;44.80;;;;;;4955936;29;20905;-54
2021/09/16 10:05:28;;;;;;;2.40;1.97;;;23.10;44.60;;;;;;4956034;28;20199;-55
2021/09/16 10:08:18;;;;;;;2.30;2.20;;;23.10;44.70;;;;;;4955512;29;20427;-57
2021/09/16 10:10:51;;;;;;;2.50;2.30;;;23.10;44.70;;;;;;4955523;28;20419;-53
2021/09/16 10:13:19;;;;;;;2.73;2.53;;;23.10;44.60;;;;;;4955808;28;20794;-55
2021/09/16 10:15:46;;;;;;;3.10;2.37;;;23.10;44.50;;;;;;4955845;28;20853;-56
2021/09/16 10:18:12;;;;;;;2.30;2.20;;;23.10;44.60;;;;;;4955360;28;20485;-56
2021/09/16 10:20:38;;;;;;;3.10;2.90;;;23.10;44.60;;;;;;4955101;29;20450;-56
2021/09/16 10:23:09;;;;;;;2.67;2.50;;;23.10;44.50;;;;;;4955896;28;20186;-52
2021/09/16 10:25:43;;;;;;;3.03;2.83;;;23.10;44.50;;;;;;4954758;28;20206;-51
2021/09/16 10:28:10;;;;;;;2.43;2.33;;;23.10;44.50;;;;;;4955498;28;20438;-55
2021/09/16 10:30:45;;;;;;;2.80;2.60;;;23.10;44.40;;;;;;4955256;28;20499;-56
2021/09/16 10:33:27;;;;;;;3.03;2.73;;;23.10;44.30;;;;;;4955433;28;20403;-56
2021/09/16 10:35:59;;;;;;;2.37;2.23;;;23.10;44.20;;;;;;4955207;29;20510;-53
2021/09/16 10:38:35;;;;;;;3.13;2.93;;;23.10;44.20;;;;;;4955094;28;20840;-58
2021/09/16 10:41:17;;;;;;;3.00;2.80;;;23.20;44.20;;;;;;4955369;29;20763;-53
2021/09/16 10:43:47;;;;;;;2.70;2.50;;;23.10;44.20;;;;;;4955183;28;20411;-56
2021/09/16 10:46:27;;;;;;;2.90;2.77;;;23.10;44.20;;;;;;4954865;29;20461;-59
2021/09/16 10:48:54;;;;;;;2.87;2.57;;;23.10;44.20;;;;;;4954991;28;20438;-52
2021/09/16 10:51:40;;;;;;;3.20;3.00;;;23.10;44.10;;;;;;4954971;29;20411;-55
2021/09/16 10:54:26;;;;;;;3.20;2.90;;;23.10;44.20;;;;;;4954671;29;20407;-56
2021/09/16 10:57:17;;;;;;;3.20;3.00;;;23.10;43.90;;;;;;4954680;28;21157;-55
2021/09/16 10:59:51;;;;;;;3.10;2.80;;;23.10;43.90;;;;;;4954957;29;20453;-57
2021/09/16 11:02:19;;;;;;;3.13;2.87;;;23.20;43.90;;;;;;4954607;28;20453;-56
2021/09/16 11:04:54;;;;;;;3.43;3.23;;;23.20;43.90;;;;;;4955039;28;20764;-57
2021/09/16 11:07:32;;;;;;;3.93;3.73;;;23.20;43.90;;;;;;4954448;28;20793;-55
2021/09/16 11:10:20;;;;;;;4.07;3.77;;;23.20;44.10;;;;;;4954778;29;20419;-53
2021/09/16 11:12:47;;;;;;;3.60;3.40;;;23.20;44.00;;;;;;4954376;28;20414;-54
2021/09/16 11:15:23;;;;;;;4.20;4.00;;;23.20;43.90;;;;;;4954980;29;20502;-55
2021/09/16 11:17:48;;;;;;;3.73;3.53;;;23.20;43.90;;;;;;4954247;28;21010;-56
2021/09/16 11:20:14;;;;;;;3.40;3.10;;;23.20;43.80;;;;;;4954582;29;20584;-52
2021/09/16 11:22:40;;;;;;;3.87;3.67;;;23.20;43.70;;;;;;4954542;29;20178;-57
2021/09/16 11:25:07;;;;;;;3.83;3.63;;;23.20;43.70;;;;;;4954217;29;20459;-52
2021/09/16 11:27:39;;;;;;;5.03;4.23;;;23.20;43.80;;;;;;4954136;28;20204;-56
2021/09/16 11:30:12;;;;;;;6.70;4.20;;;23.20;43.70;;;;;;4969359;28;20425;-55
2021/09/16 11:32:38;;;;;;;4.53;4.13;;;23.20;43.80;;;;;;4973756;28;20872;-59
2021/09/16 11:35:12;;;;;;;5.80;5.20;;;23.20;43.70;;;;;;4973259;28;20912;-55
2021/09/16 11:37:44;;;;;;;5.53;4.90;;;23.10;43.50;;;;;;4973359;28;20429;-59
2021/09/16 11:40:12;;;;;;;5.70;4.70;;;23.10;43.60;;;;;;4973382;28;20414;-56
2021/09/16 11:42:40;;;;;;;6.17;5.57;;;23.20;43.70;;;;;;4973771;28;20422;-56
2021/09/16 11:45:17;;;;;;;6.37;4.87;;;23.20;43.50;;;;;;4973408;28;20465;-54
2021/09/16 11:47:46;;;;;;;5.87;5.37;;;23.20;43.20;;;;;;4973117;28;20460;-56
2021/09/16 11:50:33;;;;;;;5.10;4.57;;;23.20;43.30;;;;;;4973259;28;20438;-54
2021/09/16 11:53:09;;;;;;;5.53;5.13;;;23.20;43.30;;;;;;4973257;28;20476;-56
2021/09/16 11:55:38;;;;;;;5.20;4.70;;;23.20;43.10;;;;;;4973386;28;20848;-56
2021/09/16 11:58:08;;;;;;;7.17;4.93;;;23.20;43.10;;;;;;4972930;28;20434;-55
2021/09/16 12:00:44;;;;;;;5.40;5.00;;;23.20;43.10;;;;;;4973068;28;20414;-53
2021/09/16 12:03:12;;;;;;;7.10;4.73;;;23.20;43.10;;;;;;4973171;28;20418;-55
2021/09/16 12:05:40;;;;;;;6.67;5.60;;;23.20;43.10;;;;;;4973437;28;20508;-56
2021/09/16 12:08:11;;;;;;;5.17;4.77;;;23.20;43.10;;;;;;4972744;28;20438;-55
2021/09/16 12:10:43;;;;;;;6.83;6.13;;;23.20;43.10;;;;;;4973240;28;20410;-56
2021/09/16 12:13:12;;;;;;;6.27;5.63;;;23.20;43.10;;;;;;4972854;28;20941;-55
2021/09/16 12:15:38;;;;;;;8.30;6.40;;;23.20;43.10;;;;;;4973059;28;20422;-53
2021/09/16 12:18:04;;;;;;;6.33;5.83;;;23.20;43.10;;;;;;4972780;28;20433;-57
2021/09/16 12:20:30;;;;;;;5.53;5.03;;;23.20;43.10;;;;;;4973054;28;20190;-56
2021/09/16 12:22:56;;;;;;;6.70;6.10;;;23.20;43.10;;;;;;4972842;28;20973;-59
2021/09/16 12:25:22;;;;;;;6.37;5.80;;;23.20;43.10;;;;;;4972561;28;20963;-58
2021/09/16 12:28:07;;;;;;;6.33;5.70;;;23.20;43.10;;;;;;4972548;28;20194;-56
2021/09/16 12:30:37;;;;;;;6.53;6.03;;;23.20;43.10;;;;;;4973095;28;20253;-57
2021/09/16 12:33:25;;;;;;;6.97;6.40;;;23.30;43.20;;;;;;4972958;28;20412;-55
2021/09/16 12:36:17;;;;;;;6.67;6.07;;;23.20;43.10;;;;;;4972960;28;20412;-57
2021/09/16 12:38:55;;;;;;;7.00;6.33;;;23.30;43.00;;;;;;4972645;28;20433;-58
2021/09/16 12:41:27;;;;;;;7.20;6.70;;;23.30;43.10;;;;;;4973001;28;20789;-56
2021/09/16 12:44:02;;;;;;;6.00;5.60;;;23.30;42.80;;;;;;4972939;28;20501;-52
2021/09/16 12:46:38;;;;;;;7.27;6.60;;;23.30;42.80;;;;;;4972433;28;20823;-56
2021/09/16 12:49:04;;;;;;;7.63;7.13;;;23.30;42.80;;;;;;4975274;28;20422;-54
2021/09/16 12:51:33;;;;;;;6.97;6.47;;;23.20;42.60;;;;;;4976518;28;20398;-55
2021/09/16 12:54:00;;;;;;;6.43;5.93;;;23.30;42.70;;;;;;4976630;28;20229;-56